Terminal Aerodrome Forecast
Issued by NWS

Home | Current Version | Previous Version | Graphics & Text | Print | Product List | Glossary On
Versions: 1 2 3 4 5 6 7 8 9 10 11 12
726
FTUS43 KIWX 261803 AAC
TAFSBN
TAF AMD
KSBN 261803Z 2618/2718 20016G27KT P6SM BKN040
     FM262300 18013KT P6SM VCTS BKN040CB
     FM270800 19013G23KT P6SM -SHRA BKN020
     FM271500 22015G25KT P6SM -SHRA BKN020=

USA.gov is the U.S. government's official web portal to all federal, state and local government web resources and services.